createdAt,value
2023-05-07T00:00:02.988Z,10.10
2023-05-07T00:00:13.901Z,10.60
2023-05-07T00:00:24.706Z,10.80
2023-05-07T00:00:35.432Z,11.30
2023-05-07T00:00:46.145Z,11.10
2023-05-07T00:00:57.870Z,10.70
2023-05-07T00:01:08.596Z,11.10
2023-05-07T00:01:20.293Z,11.80
2023-05-07T00:01:31.105Z,11.30
2023-05-07T00:01:41.822Z,10.60
2023-05-07T00:01:52.575Z,11.20
2023-05-07T00:02:04.799Z,11.20
2023-05-07T00:02:15.498Z,10.70
2023-05-07T00:02:26.435Z,10.40
2023-05-07T00:02:38.329Z,10.70
2023-05-07T00:02:50.593Z,11.10
2023-05-07T00:03:02.413Z,10.40
2023-05-07T00:03:15.413Z,10.40
2023-05-07T00:03:26.300Z,10.50
2023-05-07T00:03:38.236Z,10.80
2023-05-07T00:03:50.177Z,10.50
2023-05-07T00:04:02.253Z,10.50
2023-05-07T00:04:13.224Z,10.30
2023-05-07T00:04:24.157Z,10.60
2023-05-07T00:04:36.389Z,10.60
2023-05-07T00:04:49.322Z,10.80
2023-05-07T00:05:01.305Z,11.00
2023-05-07T00:05:12.346Z,10.90
2023-05-07T00:05:24.090Z,11.10
2023-05-07T00:05:35.778Z,10.80
2023-05-07T00:05:46.481Z,10.80
2023-05-07T00:05:57.227Z,11.50
2023-05-07T00:06:09.646Z,11.20
2023-05-07T00:06:20.350Z,11.20
2023-05-07T00:06:32.128Z,11.00
2023-05-07T00:06:42.938Z,10.80
2023-05-07T00:06:56.092Z,10.60
2023-05-07T00:07:06.810Z,10.80
2023-05-07T00:07:17.573Z,10.70
2023-05-07T00:07:29.314Z,10.80
2023-05-07T00:07:42.066Z,11.10
2023-05-07T00:07:53.890Z,10.90
2023-05-07T00:08:05.604Z,10.90
2023-05-07T00:08:16.365Z,10.90
2023-05-07T00:08:27.096Z,11.20
2023-05-07T00:08:38.959Z,11.00
2023-05-07T00:08:49.660Z,10.80
2023-05-07T00:09:02.071Z,10.30
2023-05-07T00:09:12.816Z,10.30
2023-05-07T00:09:24.501Z,10.30
2023-05-07T00:09:35.278Z,11.10
2023-05-07T00:09:47.787Z,11.50
2023-05-07T00:09:58.496Z,11.90
2023-05-07T00:10:10.343Z,11.40
2023-05-07T00:10:21.167Z,10.80
2023-05-07T00:10:31.909Z,10.60
2023-05-07T00:10:44.820Z,10.10
2023-05-07T00:10:55.550Z,10.40
2023-05-07T00:11:06.240Z,10.10
2023-05-07T00:11:16.958Z,11.00
2023-05-07T00:11:27.698Z,11.00
2023-05-07T00:11:40.149Z,10.90
2023-05-07T00:11:50.903Z,11.00
2023-05-07T00:12:02.562Z,10.90
2023-05-07T00:12:13.304Z,10.80
2023-05-07T00:12:24.028Z,11.20
2023-05-07T00:12:34.939Z,11.30
2023-05-07T00:12:45.692Z,11.30
2023-05-07T00:12:56.447Z,10.90
2023-05-07T00:13:07.196Z,11.00
2023-05-07T00:13:18.038Z,10.80
2023-05-07T00:13:28.751Z,10.70
2023-05-07T00:13:39.427Z,10.50
2023-05-07T00:13:51.864Z,10.60
2023-05-07T00:14:02.597Z,10.90
2023-05-07T00:14:13.291Z,11.10
2023-05-07T00:14:24.002Z,11.50
2023-05-07T00:14:36.414Z,11.20
2023-05-07T00:14:47.126Z,11.70
2023-05-07T00:14:57.841Z,11.80
2023-05-07T00:15:08.928Z,11.70
2023-05-07T00:15:21.529Z,11.30
2023-05-07T00:15:33.937Z,11.00
2023-05-07T00:15:44.705Z,11.60
2023-05-07T00:15:57.103Z,11.70
2023-05-07T00:16:07.834Z,11.70
2023-05-07T00:16:18.566Z,11.40
2023-05-07T00:16:29.386Z,11.60
2023-05-07T00:16:40.229Z,11.70
2023-05-07T00:16:51.994Z,11.80
2023-05-07T00:17:02.741Z,11.50
2023-05-07T00:17:13.422Z,11.40
2023-05-07T00:17:24.143Z,11.40
2023-05-07T00:17:34.852Z,11.10
2023-05-07T00:17:45.605Z,11.10
2023-05-07T00:17:58.488Z,11.10
2023-05-07T00:18:10.198Z,11.60
2023-05-07T00:18:21.866Z,11.30
2023-05-07T00:18:34.263Z,10.70
2023-05-07T00:18:44.979Z,10.80
2023-05-07T00:18:55.715Z,11.20
2023-05-07T00:19:07.457Z,10.90
2023-05-07T00:19:18.628Z,10.80
2023-05-07T00:19:31.037Z,11.00
2023-05-07T00:19:41.755Z,11.60
2023-05-07T00:19:52.450Z,11.90
2023-05-07T00:20:03.148Z,11.90
2023-05-07T00:20:13.945Z,11.50
2023-05-07T00:20:26.172Z,11.80
2023-05-07T00:20:37.877Z,11.40
2023-05-07T00:20:48.592Z,11.90
2023-05-07T00:21:01.492Z,11.20
2023-05-07T00:21:12.213Z,11.80
2023-05-07T00:21:22.927Z,11.30
2023-05-07T00:21:33.629Z,11.20
2023-05-07T00:21:44.327Z,10.80
2023-05-07T00:21:55.030Z,11.20
2023-05-07T00:22:05.739Z,11.30
2023-05-07T00:22:16.435Z,11.10
2023-05-07T00:22:28.093Z,11.00
2023-05-07T00:22:38.795Z,11.10
2023-05-07T00:22:50.456Z,10.80
2023-05-07T00:23:01.185Z,11.10
2023-05-07T00:23:11.932Z,11.00
2023-05-07T00:23:22.685Z,10.90
2023-05-07T00:23:33.384Z,10.80
2023-05-07T00:23:44.119Z,10.60
2023-05-07T00:23:54.838Z,11.10
2023-05-07T00:24:06.761Z,11.30
2023-05-07T00:24:17.468Z,11.70
2023-05-07T00:24:28.171Z,11.70
2023-05-07T00:24:38.869Z,11.40
2023-05-07T00:24:51.622Z,11.00
2023-05-07T00:25:02.380Z,11.20
2023-05-07T00:25:13.049Z,11.10
2023-05-07T00:25:23.755Z,12.30
2023-05-07T00:25:34.590Z,12.40
2023-05-07T00:25:45.374Z,11.80
2023-05-07T00:25:56.065Z,10.70
2023-05-07T00:26:07.760Z,10.90
2023-05-07T00:26:18.462Z,11.00
2023-05-07T00:26:29.176Z,11.10
2023-05-07T00:26:39.908Z,11.20
2023-05-07T00:26:50.589Z,11.40
2023-05-07T00:27:01.295Z,12.00
2023-05-07T00:27:12.020Z,11.60
2023-05-07T00:27:22.794Z,11.90
2023-05-07T00:27:34.477Z,11.70
2023-05-07T00:27:45.185Z,11.70
2023-05-07T00:27:55.891Z,11.30
2023-05-07T00:28:06.659Z,11.10
2023-05-07T00:28:17.379Z,10.90
2023-05-07T00:28:28.104Z,11.50
2023-05-07T00:28:38.789Z,11.60
2023-05-07T00:28:50.962Z,11.60
2023-05-07T00:29:01.706Z,11.30
2023-05-07T00:29:14.116Z,11.80
2023-05-07T00:29:26.489Z,12.00
2023-05-07T00:29:40.155Z,12.00
2023-05-07T00:29:53.883Z,11.60
2023-05-07T00:30:06.294Z,11.60
2023-05-07T00:30:16.994Z,11.70
2023-05-07T00:30:27.698Z,11.50
2023-05-07T00:30:40.101Z,11.80
2023-05-07T00:30:52.504Z,12.00
2023-05-07T00:31:04.174Z,11.40
2023-05-07T00:31:14.936Z,11.30
2023-05-07T00:31:26.658Z,11.20
2023-05-07T00:31:38.368Z,11.20
2023-05-07T00:31:49.091Z,11.30
2023-05-07T00:31:59.839Z,10.80
2023-05-07T00:32:12.758Z,11.50
2023-05-07T00:32:25.156Z,11.80
2023-05-07T00:32:35.868Z,11.70
2023-05-07T00:32:46.634Z,11.40
2023-05-07T00:32:58.389Z,11.00
2023-05-07T00:33:09.120Z,11.20
2023-05-07T00:33:19.809Z,11.20
2023-05-07T00:33:30.528Z,11.20
2023-05-07T00:33:41.267Z,11.00
2023-05-07T00:33:51.957Z,11.30
2023-05-07T00:34:03.626Z,12.00
2023-05-07T00:34:15.294Z,12.20
2023-05-07T00:34:26.062Z,12.00
2023-05-07T00:34:36.772Z,11.20
2023-05-07T00:34:49.215Z,11.30
2023-05-07T00:35:01.618Z,11.00
2023-05-07T00:35:14.025Z,11.30
2023-05-07T00:35:24.751Z,11.60
2023-05-07T00:35:37.182Z,12.00
2023-05-07T00:35:47.886Z,11.60
2023-05-07T00:36:00.057Z,11.40
2023-05-07T00:36:11.779Z,11.40
2023-05-07T00:36:24.181Z,12.10
2023-05-07T00:36:36.356Z,12.30
2023-05-07T00:36:47.076Z,12.50
2023-05-07T00:36:57.762Z,12.40
2023-05-07T00:37:08.488Z,11.70
2023-05-07T00:37:20.167Z,11.70
2023-05-07T00:37:31.843Z,11.30
2023-05-07T00:37:42.554Z,11.20
2023-05-07T00:37:54.236Z,11.20
2023-05-07T00:38:07.174Z,11.50
2023-05-07T00:38:18.868Z,11.10
2023-05-07T00:38:32.275Z,10.40
2023-05-07T00:38:45.454Z,10.50
2023-05-07T00:38:57.616Z,11.20
2023-05-07T00:39:08.338Z,11.30
2023-05-07T00:39:19.087Z,11.10
2023-05-07T00:39:29.797Z,11.10
2023-05-07T00:39:40.523Z,11.60
2023-05-07T00:39:51.261Z,11.60
2023-05-07T00:40:01.986Z,12.30
2023-05-07T00:40:14.400Z,12.10
2023-05-07T00:40:26.086Z,11.80
2023-05-07T00:40:36.813Z,11.20
2023-05-07T00:40:47.544Z,11.80
2023-05-07T00:40:58.247Z,11.80
2023-05-07T00:41:10.430Z,11.60
2023-05-07T00:41:21.123Z,11.20
2023-05-07T00:41:31.821Z,11.10
2023-05-07T00:41:42.511Z,11.60
2023-05-07T00:41:53.219Z,11.80
2023-05-07T00:42:04.885Z,11.80
2023-05-07T00:42:15.595Z,11.20
2023-05-07T00:42:27.277Z,11.40
2023-05-07T00:42:38.040Z,11.70
2023-05-07T00:42:49.724Z,12.00
2023-05-07T00:43:00.420Z,11.60
2023-05-07T00:43:11.106Z,11.60
2023-05-07T00:43:24.309Z,11.80
2023-05-07T00:43:35.991Z,12.10
2023-05-07T00:43:47.627Z,11.40
2023-05-07T00:43:59.313Z,11.60
2023-05-07T00:44:10.102Z,11.70
2023-05-07T00:44:20.808Z,11.90
2023-05-07T00:44:31.507Z,12.20
2023-05-07T00:44:43.208Z,12.10
2023-05-07T00:44:53.958Z,12.10
2023-05-07T00:45:04.646Z,12.30
2023-05-07T00:45:15.327Z,12.60
2023-05-07T00:45:27.031Z,12.00
2023-05-07T00:45:37.832Z,11.60
2023-05-07T00:45:48.652Z,11.50
2023-05-07T00:46:00.384Z,11.80
2023-05-07T00:46:12.174Z,11.90
2023-05-07T00:46:25.374Z,12.60
2023-05-07T00:46:38.075Z,12.40
2023-05-07T00:46:48.781Z,12.00
2023-05-07T00:46:59.549Z,11.50
2023-05-07T00:47:10.270Z,11.60
2023-05-07T00:47:20.992Z,11.60
2023-05-07T00:47:31.719Z,11.40
2023-05-07T00:47:42.428Z,11.50
2023-05-07T00:47:54.163Z,11.70
2023-05-07T00:48:04.885Z,12.00
2023-05-07T00:48:17.284Z,12.00
2023-05-07T00:48:29.725Z,12.10
2023-05-07T00:48:41.403Z,11.60
2023-05-07T00:48:53.812Z,11.90
2023-05-07T00:49:04.536Z,11.20
2023-05-07T00:49:16.191Z,11.00
2023-05-07T00:49:28.594Z,11.00
2023-05-07T00:49:41.041Z,11.40
2023-05-07T00:49:54.195Z,11.50
2023-05-07T00:50:04.970Z,11.60
2023-05-07T00:50:15.672Z,11.30
2023-05-07T00:50:28.084Z,11.40
2023-05-07T00:50:40.469Z,11.70
2023-05-07T00:50:52.343Z,11.40
2023-05-07T00:51:04.619Z,10.90
2023-05-07T00:51:15.356Z,10.80
2023-05-07T00:51:27.033Z,11.70
2023-05-07T00:51:37.761Z,11.50
2023-05-07T00:51:48.440Z,11.40
2023-05-07T00:52:01.625Z,11.90
2023-05-07T00:52:12.333Z,12.20
2023-05-07T00:52:26.049Z,11.90
2023-05-07T00:52:37.778Z,11.20
2023-05-07T00:52:49.442Z,11.20
2023-05-07T00:53:01.621Z,11.80
2023-05-07T00:53:13.283Z,11.90
2023-05-07T00:53:23.997Z,11.50
2023-05-07T00:53:36.375Z,11.70
2023-05-07T00:53:48.759Z,11.60
2023-05-07T00:54:01.915Z,11.50
2023-05-07T00:54:14.326Z,11.70
2023-05-07T00:54:25.050Z,11.80
2023-05-07T00:54:38.210Z,11.70
2023-05-07T00:54:49.885Z,12.60
2023-05-07T00:55:02.275Z,12.60
2023-05-07T00:55:14.478Z,12.30
2023-05-07T00:55:27.367Z,12.20
2023-05-07T00:55:39.048Z,11.80
2023-05-07T00:55:51.418Z,11.80
2023-05-07T00:56:02.189Z,11.70
2023-05-07T00:56:12.840Z,11.40
2023-05-07T00:56:24.532Z,11.90
2023-05-07T00:56:36.198Z,12.50
2023-05-07T00:56:48.381Z,12.60
2023-05-07T00:57:00.114Z,12.60
2023-05-07T00:57:11.777Z,12.80
2023-05-07T00:57:22.534Z,12.90
2023-05-07T00:57:33.257Z,12.20
2023-05-07T00:57:43.954Z,11.30
2023-05-07T00:57:57.116Z,10.90
2023-05-07T00:58:09.817Z,11.00
2023-05-07T00:58:21.466Z,11.10
2023-05-07T00:58:33.874Z,11.60
2023-05-07T00:58:44.655Z,12.10
2023-05-07T00:58:57.827Z,12.50
2023-05-07T00:59:10.276Z,13.00
2023-05-07T00:59:22.487Z,12.90
2023-05-07T00:59:34.154Z,13.00
2023-05-07T00:59:45.809Z,12.10
2023-05-07T00:59:56.565Z,11.90
2023-05-07T01:00:07.267Z,12.00
2023-05-07T01:00:17.964Z,12.40
2023-05-07T01:00:30.633Z,12.30
2023-05-07T01:00:42.359Z,12.00
2023-05-07T01:00:53.061Z,11.60
2023-05-07T01:01:04.781Z,12.00
2023-05-07T01:01:15.524Z,11.90
2023-05-07T01:01:27.212Z,12.10
2023-05-07T01:01:39.739Z,12.20
2023-05-07T01:01:52.188Z,11.90
2023-05-07T01:02:02.946Z,11.70
2023-05-07T01:02:13.677Z,11.60
2023-05-07T01:02:25.394Z,11.60
2023-05-07T01:02:36.117Z,11.40
2023-05-07T01:02:48.657Z,11.60
2023-05-07T01:02:59.811Z,12.60
2023-05-07T01:03:10.830Z,13.10
2023-05-07T01:03:22.071Z,12.70
2023-05-07T01:03:33.128Z,12.10
2023-05-07T01:03:44.034Z,12.20
2023-05-07T01:03:56.803Z,12.30
2023-05-07T01:04:10.483Z,11.50
2023-05-07T01:04:23.033Z,11.90
2023-05-07T01:04:34.933Z,12.60
2023-05-07T01:04:47.700Z,12.70
2023-05-07T01:05:00.437Z,12.30
2023-05-07T01:05:11.602Z,12.50
2023-05-07T01:05:22.859Z,12.60
2023-05-07T01:05:34.027Z,12.00
2023-05-07T01:05:45.246Z,12.10
2023-05-07T01:05:56.288Z,12.50
2023-05-07T01:06:09.660Z,12.60
2023-05-07T01:06:21.655Z,11.70
2023-05-07T01:06:32.801Z,12.00
2023-05-07T01:06:44.818Z,12.30
2023-05-07T01:06:55.786Z,12.60
2023-05-07T01:07:08.289Z,12.20
2023-05-07T01:07:18.981Z,12.40
2023-05-07T01:07:30.662Z,11.80
2023-05-07T01:07:41.402Z,12.80
2023-05-07T01:07:52.111Z,12.80
2023-05-07T01:08:03.805Z,12.50
2023-05-07T01:08:15.483Z,12.20
2023-05-07T01:08:26.762Z,11.90
2023-05-07T01:08:39.972Z,12.20
2023-05-07T01:08:50.696Z,11.90
2023-05-07T01:09:02.368Z,12.10
2023-05-07T01:09:14.807Z,11.90
2023-05-07T01:09:25.557Z,11.40
2023-05-07T01:09:36.429Z,11.50
2023-05-07T01:09:47.127Z,11.50
2023-05-07T01:09:57.819Z,11.30
2023-05-07T01:10:08.676Z,11.50
2023-05-07T01:10:20.398Z,11.30
2023-05-07T01:10:31.145Z,11.60
2023-05-07T01:10:42.811Z,11.60
2023-05-07T01:10:56.992Z,11.60
2023-05-07T01:11:09.397Z,11.30
2023-05-07T01:11:21.139Z,12.10
2023-05-07T01:11:31.877Z,12.40
2023-05-07T01:11:42.578Z,12.10
2023-05-07T01:11:53.289Z,12.00
2023-05-07T01:12:05.651Z,12.50
2023-05-07T01:12:16.348Z,12.80
2023-05-07T01:12:27.034Z,11.80
2023-05-07T01:12:40.201Z,11.60
2023-05-07T01:12:51.899Z,11.30
2023-05-07T01:13:03.639Z,10.60
2023-05-07T01:13:17.818Z,11.00
2023-05-07T01:13:30.039Z,11.10
2023-05-07T01:13:42.221Z,11.40
2023-05-07T01:13:54.612Z,11.50
2023-05-07T01:14:06.319Z,11.80
2023-05-07T01:14:17.043Z,11.80
2023-05-07T01:14:29.428Z,11.70
2023-05-07T01:14:40.134Z,11.50
2023-05-07T01:14:50.819Z,11.80
2023-05-07T01:15:02.479Z,11.60
2023-05-07T01:15:14.204Z,11.90
2023-05-07T01:15:25.901Z,12.00
2023-05-07T01:15:36.597Z,12.30
2023-05-07T01:15:49.029Z,11.90
2023-05-07T01:16:00.708Z,11.90
2023-05-07T01:16:13.107Z,12.20
2023-05-07T01:16:26.821Z,12.20
2023-05-07T01:16:39.226Z,11.60
2023-05-07T01:16:50.006Z,11.20
2023-05-07T01:17:00.753Z,11.40
2023-05-07T01:17:13.421Z,11.50
2023-05-07T01:17:25.649Z,11.60
2023-05-07T01:17:38.064Z,11.80
2023-05-07T01:17:50.476Z,11.50
2023-05-07T01:18:02.960Z,11.30
2023-05-07T01:18:15.352Z,11.60
2023-05-07T01:18:27.024Z,12.10
2023-05-07T01:18:37.738Z,11.90
2023-05-07T01:18:49.466Z,11.80
2023-05-07T01:19:01.848Z,12.10
2023-05-07T01:19:13.593Z,11.50
2023-05-07T01:19:24.394Z,12.30
2023-05-07T01:19:35.086Z,12.30
2023-05-07T01:19:46.771Z,12.00
2023-05-07T01:19:57.464Z,11.60
2023-05-07T01:20:08.229Z,11.90
2023-05-07T01:20:19.007Z,13.10
2023-05-07T01:20:29.707Z,12.90
2023-05-07T01:20:41.421Z,12.50
2023-05-07T01:20:53.044Z,11.90
2023-05-07T01:21:03.750Z,12.20
2023-05-07T01:21:15.470Z,12.00
2023-05-07T01:21:27.124Z,10.90
2023-05-07T01:21:37.823Z,11.00
2023-05-07T01:21:48.526Z,11.50
2023-05-07T01:21:59.267Z,11.60
2023-05-07T01:22:11.683Z,12.00
2023-05-07T01:22:22.377Z,11.90
2023-05-07T01:22:34.068Z,12.40
2023-05-07T01:22:46.720Z,12.00
2023-05-07T01:22:57.445Z,11.50
2023-05-07T01:23:08.188Z,11.90
2023-05-07T01:23:20.571Z,12.70
2023-05-07T01:23:32.949Z,12.90
2023-05-07T01:23:43.716Z,12.00
2023-05-07T01:23:55.869Z,10.90
2023-05-07T01:24:07.717Z,11.20
2023-05-07T01:24:19.393Z,11.00
2023-05-07T01:24:30.133Z,11.10
2023-05-07T01:24:41.113Z,11.50
2023-05-07T01:24:53.494Z,12.40
2023-05-07T01:25:05.878Z,12.50
2023-05-07T01:25:16.576Z,12.00
2023-05-07T01:25:28.241Z,12.00
2023-05-07T01:25:39.886Z,12.20
2023-05-07T01:25:50.598Z,12.30
2023-05-07T01:26:01.346Z,12.10
2023-05-07T01:26:13.780Z,11.90
2023-05-07T01:26:25.950Z,12.60
2023-05-07T01:26:37.688Z,12.40
2023-05-07T01:26:48.415Z,11.90
2023-05-07T01:26:59.166Z,11.60
2023-05-07T01:27:12.357Z,11.40
2023-05-07T01:27:24.044Z,11.70
2023-05-07T01:27:34.755Z,11.30
2023-05-07T01:27:47.924Z,11.60
2023-05-07T01:28:00.357Z,12.00
2023-05-07T01:28:12.766Z,12.10
2023-05-07T01:28:23.485Z,12.20
2023-05-07T01:28:35.684Z,12.00
2023-05-07T01:28:47.346Z,12.60
2023-05-07T01:29:01.518Z,11.80
2023-05-07T01:29:12.212Z,11.40
2023-05-07T01:29:24.642Z,11.40
2023-05-07T01:29:37.308Z,12.30
2023-05-07T01:29:48.954Z,12.40
2023-05-07T01:29:59.668Z,11.80
2023-05-07T01:30:12.461Z,12.00
2023-05-07T01:30:23.470Z,12.30
2023-05-07T01:30:35.869Z,12.00
2023-05-07T01:30:46.572Z,11.60
2023-05-07T01:30:57.297Z,12.00
2023-05-07T01:31:09.544Z,11.30
2023-05-07T01:31:20.271Z,12.70
2023-05-07T01:31:31.983Z,12.70
2023-05-07T01:31:43.808Z,12.70
2023-05-07T01:31:56.185Z,12.50
2023-05-07T01:32:09.107Z,11.80
2023-05-07T01:32:19.859Z,11.20
2023-05-07T01:32:32.297Z,10.80
2023-05-07T01:32:43.050Z,11.80
2023-05-07T01:32:55.549Z,12.20
2023-05-07T01:33:08.029Z,12.20
2023-05-07T01:33:18.756Z,11.70
2023-05-07T01:33:29.468Z,11.80
2023-05-07T01:33:40.174Z,12.10
2023-05-07T01:33:50.909Z,11.60
2023-05-07T01:34:03.089Z,10.90
2023-05-07T01:34:16.267Z,11.10
2023-05-07T01:34:26.967Z,12.00
2023-05-07T01:34:37.771Z,12.70
2023-05-07T01:34:50.199Z,12.20
2023-05-07T01:35:03.098Z,12.00
2023-05-07T01:35:14.790Z,12.10
2023-05-07T01:35:27.189Z,11.70
2023-05-07T01:35:37.909Z,12.10
2023-05-07T01:35:50.338Z,12.10
2023-05-07T01:36:02.016Z,11.90
2023-05-07T01:36:14.393Z,12.40
2023-05-07T01:36:27.580Z,12.30
2023-05-07T01:36:41.021Z,12.80
2023-05-07T01:36:52.700Z,12.80
2023-05-07T01:37:04.388Z,12.20
2023-05-07T01:37:16.833Z,11.60
2023-05-07T01:37:27.578Z,11.10
2023-05-07T01:37:39.293Z,12.00
2023-05-07T01:37:49.988Z,12.00
2023-05-07T01:38:03.173Z,12.30
2023-05-07T01:38:15.576Z,12.20
2023-05-07T01:38:26.365Z,11.40
2023-05-07T01:38:38.563Z,11.60
2023-05-07T01:38:49.279Z,12.10
2023-05-07T01:39:00.032Z,12.00
2023-05-07T01:39:11.783Z,11.50
2023-05-07T01:39:24.179Z,12.00
2023-05-07T01:39:34.935Z,12.40
2023-05-07T01:39:45.684Z,11.90
2023-05-07T01:40:01.345Z,11.30
2023-05-07T01:40:13.223Z,11.30
2023-05-07T01:40:25.676Z,11.50
2023-05-07T01:40:37.324Z,11.70
2023-05-07T01:40:49.724Z,11.60
2023-05-07T01:41:00.445Z,11.80
2023-05-07T01:41:11.132Z,12.40
2023-05-07T01:41:22.755Z,12.70
2023-05-07T01:41:33.554Z,12.50
2023-05-07T01:41:46.790Z,12.00
2023-05-07T01:41:57.477Z,12.20
2023-05-07T01:42:08.271Z,12.20
2023-05-07T01:42:18.960Z,12.20
2023-05-07T01:42:30.664Z,11.70
2023-05-07T01:42:41.372Z,11.40
2023-05-07T01:42:52.083Z,11.60
2023-05-07T01:43:02.844Z,11.70
2023-05-07T01:43:15.270Z,11.70
2023-05-07T01:43:25.966Z,11.40
2023-05-07T01:43:36.654Z,12.10
2023-05-07T01:43:49.827Z,12.60
2023-05-07T01:44:01.507Z,11.90
2023-05-07T01:44:13.687Z,11.60
2023-05-07T01:44:24.434Z,11.50
2023-05-07T01:44:36.156Z,12.00
2023-05-07T01:44:48.305Z,12.00
2023-05-07T01:45:00.010Z,11.80
2023-05-07T01:45:11.671Z,11.30
2023-05-07T01:45:24.216Z,12.10
2023-05-07T01:45:34.924Z,12.30
2023-05-07T01:45:47.079Z,12.10
2023-05-07T01:45:57.805Z,11.70
2023-05-07T01:46:08.577Z,12.00
2023-05-07T01:46:20.792Z,12.00
2023-05-07T01:46:31.496Z,12.20
2023-05-07T01:46:43.168Z,12.00
2023-05-07T01:46:54.040Z,11.60
2023-05-07T01:47:04.749Z,11.70
2023-05-07T01:47:15.508Z,12.50
2023-05-07T01:47:27.913Z,12.90
2023-05-07T01:47:39.606Z,12.10
2023-05-07T01:47:52.053Z,12.00
2023-05-07T01:48:05.228Z,11.60
2023-05-07T01:48:15.913Z,11.40
2023-05-07T01:48:26.622Z,12.10
2023-05-07T01:48:39.040Z,12.40
2023-05-07T01:48:49.732Z,12.30
2023-05-07T01:49:01.400Z,11.90
2023-05-07T01:49:13.129Z,12.40
2023-05-07T01:49:23.865Z,12.10
2023-05-07T01:49:35.531Z,12.20
2023-05-07T01:49:47.224Z,12.60
2023-05-07T01:49:57.921Z,13.10
2023-05-07T01:50:10.457Z,12.50
2023-05-07T01:50:22.917Z,11.70
2023-05-07T01:50:35.831Z,11.80
2023-05-07T01:50:47.566Z,11.40
2023-05-07T01:50:59.769Z,11.80
2023-05-07T01:51:10.467Z,12.70
2023-05-07T01:51:22.701Z,12.70
2023-05-07T01:51:33.364Z,12.30
2023-05-07T01:51:45.040Z,12.70
2023-05-07T01:51:56.734Z,12.40
2023-05-07T01:52:07.451Z,12.60
2023-05-07T01:52:20.342Z,11.90
2023-05-07T01:52:31.033Z,12.10
2023-05-07T01:52:41.720Z,12.10
2023-05-07T01:52:54.896Z,11.90
2023-05-07T01:53:06.556Z,11.90
2023-05-07T01:53:18.243Z,12.20
2023-05-07T01:53:28.956Z,12.50
2023-05-07T01:53:40.625Z,12.50
2023-05-07T01:53:51.353Z,12.40
2023-05-07T01:54:02.063Z,12.40
2023-05-07T01:54:12.800Z,12.70
2023-05-07T01:54:23.508Z,12.50
2023-05-07T01:54:35.975Z,12.60
2023-05-07T01:54:46.690Z,12.70
2023-05-07T01:54:57.420Z,12.80
2023-05-07T01:55:08.113Z,13.10
2023-05-07T01:55:18.808Z,12.90
2023-05-07T01:55:29.530Z,12.50
2023-05-07T01:55:40.241Z,13.00
2023-05-07T01:55:52.056Z,12.60
2023-05-07T01:56:02.816Z,12.30
2023-05-07T01:56:13.570Z,12.00
2023-05-07T01:56:25.764Z,12.20
2023-05-07T01:56:36.470Z,11.90
2023-05-07T01:56:47.161Z,12.20
2023-05-07T01:56:59.539Z,11.40
2023-05-07T01:57:10.231Z,11.50
2023-05-07T01:57:22.422Z,11.00
2023-05-07T01:57:36.275Z,11.20
2023-05-07T01:57:48.439Z,12.20
2023-05-07T01:58:00.636Z,12.40
2023-05-07T01:58:12.552Z,12.70
2023-05-07T01:58:24.948Z,12.00
2023-05-07T01:58:36.613Z,11.80
2023-05-07T01:58:48.341Z,11.70
2023-05-07T01:59:00.052Z,11.60
2023-05-07T01:59:11.276Z,12.00
2023-05-07T01:59:22.970Z,12.40
2023-05-07T01:59:35.349Z,12.80
2023-05-07T01:59:46.135Z,12.90
2023-05-07T01:59:58.560Z,12.80
2023-05-07T02:00:09.588Z,12.40
2023-05-07T02:00:22.697Z,12.30
2023-05-07T02:00:33.445Z,12.10
2023-05-07T02:00:45.210Z,12.50
2023-05-07T02:00:57.498Z,12.40
2023-05-07T02:01:09.160Z,12.20
2023-05-07T02:01:20.032Z,12.50
2023-05-07T02:01:30.948Z,12.80
2023-05-07T02:01:42.622Z,12.80
2023-05-07T02:01:55.048Z,13.50
2023-05-07T02:02:07.642Z,12.90
2023-05-07T02:02:18.476Z,12.40
2023-05-07T02:02:29.274Z,12.80
2023-05-07T02:02:40.043Z,12.70
2023-05-07T02:02:50.936Z,12.90
2023-05-07T02:03:04.365Z,12.50
2023-05-07T02:03:17.235Z,12.60
2023-05-07T02:03:28.082Z,12.90
2023-05-07T02:03:38.870Z,13.50
2023-05-07T02:03:49.804Z,13.10
2023-05-07T02:04:00.645Z,13.40
2023-05-07T02:04:12.318Z,13.20
2023-05-07T02:04:24.092Z,13.40
2023-05-07T02:04:34.774Z,12.60
2023-05-07T02:04:47.954Z,12.30
2023-05-07T02:05:03.628Z,12.20
2023-05-07T02:05:16.024Z,12.30
2023-05-07T02:05:26.720Z,12.40
2023-05-07T02:05:38.400Z,12.40
2023-05-07T02:05:51.554Z,13.00
2023-05-07T02:06:03.224Z,13.50
2023-05-07T02:06:16.586Z,13.50
2023-05-07T02:06:28.914Z,12.80
2023-05-07T02:06:39.604Z,13.60
2023-05-07T02:06:50.301Z,13.30
2023-05-07T02:07:01.053Z,12.60
2023-05-07T02:07:12.962Z,12.30
2023-05-07T02:07:23.690Z,12.10
2023-05-07T02:07:34.356Z,12.30
2023-05-07T02:07:46.068Z,12.70
2023-05-07T02:07:57.705Z,12.90
2023-05-07T02:08:09.355Z,13.00
2023-05-07T02:08:20.096Z,13.20
2023-05-07T02:08:32.640Z,12.60
2023-05-07T02:08:44.352Z,13.30
2023-05-07T02:08:55.289Z,13.40
2023-05-07T02:09:07.678Z,13.00
2023-05-07T02:09:19.369Z,13.00
2023-05-07T02:09:30.088Z,13.10
2023-05-07T02:09:40.802Z,13.60
2023-05-07T02:09:51.509Z,13.30
2023-05-07T02:10:03.169Z,13.50
2023-05-07T02:10:15.572Z,13.20
2023-05-07T02:10:29.264Z,13.30
2023-05-07T02:10:41.653Z,14.00
2023-05-07T02:10:53.317Z,14.30
2023-05-07T02:11:05.497Z,14.10
2023-05-07T02:11:16.188Z,14.30
2023-05-07T02:11:28.364Z,13.70
2023-05-07T02:11:41.280Z,13.30
2023-05-07T02:11:51.962Z,13.40
2023-05-07T02:12:02.682Z,13.70
2023-05-07T02:12:13.456Z,13.00
2023-05-07T02:12:24.136Z,13.40
2023-05-07T02:12:35.841Z,13.10
2023-05-07T02:12:46.595Z,13.70
2023-05-07T02:12:58.975Z,13.90
2023-05-07T02:13:10.694Z,14.20
2023-05-07T02:13:21.465Z,13.60
2023-05-07T02:13:32.172Z,13.20
2023-05-07T02:13:42.894Z,12.50
2023-05-07T02:13:53.585Z,12.80
2023-05-07T02:14:04.288Z,13.30
2023-05-07T02:14:15.947Z,13.20
2023-05-07T02:14:26.684Z,13.60
2023-05-07T02:14:37.428Z,13.70
2023-05-07T02:14:49.092Z,13.90
2023-05-07T02:15:00.784Z,13.40
2023-05-07T02:15:11.522Z,13.70
2023-05-07T02:15:24.680Z,14.10
2023-05-07T02:15:37.852Z,13.40
2023-05-07T02:15:50.541Z,13.30
2023-05-07T02:16:02.243Z,13.40
2023-05-07T02:16:12.980Z,13.00
2023-05-07T02:16:25.407Z,13.50
2023-05-07T02:16:37.124Z,13.80
2023-05-07T02:16:49.349Z,13.50
2023-05-07T02:17:00.229Z,13.20
2023-05-07T02:17:11.934Z,14.10
2023-05-07T02:17:22.751Z,14.10
2023-05-07T02:17:34.452Z,13.40
2023-05-07T02:17:45.140Z,13.30
2023-05-07T02:17:55.873Z,13.70
2023-05-07T02:18:06.554Z,13.50
2023-05-07T02:18:18.239Z,13.50
2023-05-07T02:18:28.945Z,13.00
2023-05-07T02:18:41.332Z,13.30
2023-05-07T02:18:53.032Z,13.30
2023-05-07T02:19:05.231Z,13.50
2023-05-07T02:19:16.016Z,14.20
2023-05-07T02:19:29.167Z,14.40
2023-05-07T02:19:41.829Z,14.00
2023-05-07T02:19:52.551Z,13.80
2023-05-07T02:20:03.276Z,13.60
2023-05-07T02:20:14.991Z,13.50
2023-05-07T02:20:27.385Z,13.00
2023-05-07T02:20:38.121Z,13.20
2023-05-07T02:20:49.812Z,13.50
2023-05-07T02:21:01.555Z,13.60
2023-05-07T02:21:13.264Z,14.00
2023-05-07T02:21:25.659Z,13.90
2023-05-07T02:21:36.374Z,14.00
2023-05-07T02:21:47.081Z,13.80
2023-05-07T02:21:59.513Z,13.70
2023-05-07T02:22:11.185Z,13.70
2023-05-07T02:22:23.576Z,14.20
2023-05-07T02:22:35.797Z,13.80
2023-05-07T02:22:48.184Z,14.20
2023-05-07T02:22:58.910Z,14.00
2023-05-07T02:23:11.320Z,13.80
2023-05-07T02:23:22.078Z,13.90
2023-05-07T02:23:34.244Z,14.30
2023-05-07T02:23:44.923Z,14.90
2023-05-07T02:23:56.592Z,14.10
2023-05-07T02:24:07.307Z,14.50
2023-05-07T02:24:19.034Z,14.40
2023-05-07T02:24:29.747Z,14.70
2023-05-07T02:24:40.452Z,14.90
2023-05-07T02:24:51.188Z,14.90
2023-05-07T02:25:01.940Z,14.40
2023-05-07T02:25:12.626Z,14.00
2023-05-07T02:25:24.327Z,14.00
2023-05-07T02:25:35.058Z,14.10
2023-05-07T02:25:48.758Z,14.40
2023-05-07T02:25:59.458Z,14.10
2023-05-07T02:26:10.175Z,13.90
2023-05-07T02:26:23.060Z,13.90
2023-05-07T02:26:33.750Z,14.10
2023-05-07T02:26:45.677Z,14.20
2023-05-07T02:26:58.122Z,14.10
2023-05-07T02:27:08.816Z,14.40
2023-05-07T02:27:21.729Z,14.20
2023-05-07T02:27:33.982Z,15.60
2023-05-07T02:27:46.391Z,16.20
2023-05-07T02:27:57.083Z,16.70
2023-05-07T02:28:10.196Z,16.10
2023-05-07T02:28:22.390Z,16.70